PWSweather.com
Personal Weather Stations
Station Observations
METEOC500
Santo Antonio, FunchalPT 2020

Santo AntonioFunchalPT 2020

Lat: 32.678227, Lon: -16.945054

Elevation: 1669.94751

Station Type: WH Series

High Low Average
Temperature 74.3°F23.5°C 60.1°F15.6°C 66.1°F18.9°C
Dew Point 60.6°F15.9°C 54.1°F12.3°C 57.4°F14.1°C
Winds 12.8 mph 20.6 kmh Calm Calm 5.0 mph WSW8.0 kmh WSW
Wind Gusts 17.4 mph28.0 kmh 2.5 mph4.0 kmh 10.0 mph16.1 kmh
Humidity 84% 59% 74%
Pressure 30.19 in1022.4 mb 30.12 in1020.0 mb -
Precipitation 0.00 in0.0 mm - -
Hour Temp Dew Point Humidity Winds Wind Gusts Pressure Precip Precip Rate Daily Precip Total
12:12 AM 63.1°F17.3°C 57.9°F14.4°C 83% 3.8 mph NNW6.1 kmh NNW 7.6 mph12.2 kmh 30.17 in1021.7 mb 0.00 in0.0 mm 0.00 in0.0 mm 0.00 in0.0 mm
12:27 AM 62.8°F17.1°C 57.6°F14.2°C 83% 6.5 mph N10.5 kmh N 10.1 mph16.3 kmh 30.17 in1021.7 mb 0.00 in0.0 mm 0.00 in0.0 mm 0.00 in0.0 mm
12:43 AM 62.4°F16.9°C 57.2°F14.0°C 83% 4.5 mph NNW7.2 kmh NNW 7.6 mph12.2 kmh 30.17 in1021.7 mb 0.00 in0.0 mm 0.00 in0.0 mm 0.00 in0.0 mm
12:58 AM 62.2°F16.8°C 57.4°F14.1°C 84% 3.8 mph N6.1 kmh N 7.6 mph12.2 kmh 30.16 in1021.3 mb 0.00 in0.0 mm 0.00 in0.0 mm 0.00 in0.0 mm
01:13 AM 62.2°F16.8°C 57.4°F14.1°C 84% 3.1 mph NNW5.0 kmh NNW 7.6 mph12.2 kmh 30.16 in1021.3 mb 0.00 in0.0 mm 0.00 in0.0 mm 0.00 in0.0 mm
01:28 AM 62.1°F16.7°C 57.2°F14.0°C 84% 5.6 mph N9.0 kmh N 10.1 mph16.3 kmh 30.16 in1021.3 mb 0.00 in0.0 mm 0.00 in0.0 mm 0.00 in0.0 mm
01:44 AM 61.7°F16.5°C 56.1°F13.4°C 82% 7.2 mph NNW11.6 kmh NNW 10.1 mph16.3 kmh 30.16 in1021.3 mb 0.00 in0.0 mm 0.00 in0.0 mm 0.00 in0.0 mm
01:59 AM 61.3°F16.3°C 55.4°F13.0°C 81% 6.0 mph NNW9.7 kmh NNW 10.1 mph16.3 kmh 30.16 in1021.3 mb 0.00 in0.0 mm 0.00 in0.0 mm 0.00 in0.0 mm
02:14 AM 60.8°F16.0°C 55.2°F12.9°C 82% 4.0 mph NNW6.4 kmh NNW 10.1 mph16.3 kmh 30.16 in1021.3 mb 0.00 in0.0 mm 0.00 in0.0 mm 0.00 in0.0 mm
02:29 AM 60.6°F15.9°C 55.0°F12.8°C 82% 6.0 mph NNW9.7 kmh NNW 10.1 mph16.3 kmh 30.15 in1021.0 mb 0.00 in0.0 mm 0.00 in0.0 mm 0.00 in0.0 mm
02:45 AM 60.8°F16.0°C 54.9°F12.7°C 81% 5.6 mph N9.0 kmh N 10.1 mph16.3 kmh 30.15 in1021.0 mb 0.00 in0.0 mm 0.00 in0.0 mm 0.00 in0.0 mm
03:00 AM 60.8°F16.0°C 54.9°F12.7°C 81% 3.8 mph NNW6.1 kmh NNW 10.1 mph16.3 kmh 30.15 in1021.0 mb 0.00 in0.0 mm 0.00 in0.0 mm 0.00 in0.0 mm
03:15 AM 60.8°F16.0°C 54.7°F12.6°C 80% 4.9 mph NW7.9 kmh NW 10.1 mph16.3 kmh 30.14 in1020.7 mb 0.00 in0.0 mm 0.00 in0.0 mm 0.00 in0.0 mm
03:30 AM 60.6°F15.9°C 54.5°F12.5°C 80% 5.6 mph N9.0 kmh N 7.6 mph12.2 kmh 30.14 in1020.7 mb 0.00 in0.0 mm 0.00 in0.0 mm 0.00 in0.0 mm
03:45 AM 60.4°F15.8°C 54.9°F12.7°C 82% 2.9 mph NNW4.7 kmh NNW 10.1 mph16.3 kmh 30.14 in1020.7 mb 0.00 in0.0 mm 0.00 in0.0 mm 0.00 in0.0 mm
04:01 AM 60.3°F15.7°C 54.7°F12.6°C 82% 4.5 mph N7.2 kmh N 7.6 mph12.2 kmh 30.14 in1020.7 mb 0.00 in0.0 mm 0.00 in0.0 mm 0.00 in0.0 mm
04:16 AM 60.1°F15.6°C 54.5°F12.5°C 82% 5.6 mph N9.0 kmh N 7.6 mph12.2 kmh 30.14 in1020.7 mb 0.00 in0.0 mm 0.00 in0.0 mm 0.00 in0.0 mm
04:31 AM 60.3°F15.7°C 54.7°F12.6°C 82% 6.0 mph N9.7 kmh N 10.1 mph16.3 kmh 30.13 in1020.3 mb 0.00 in0.0 mm 0.00 in0.0 mm 0.00 in0.0 mm
04:46 AM 60.3°F15.7°C 55.0°F12.8°C 83% 5.4 mph NNW8.7 kmh NNW 10.1 mph16.3 kmh 30.14 in1020.7 mb 0.00 in0.0 mm 0.00 in0.0 mm 0.00 in0.0 mm
05:01 AM 60.4°F15.8°C 54.9°F12.7°C 82% 6.5 mph NNW10.5 kmh NNW 10.1 mph16.3 kmh 30.13 in1020.3 mb 0.00 in0.0 mm 0.00 in0.0 mm 0.00 in0.0 mm
05:17 AM 60.6°F15.9°C 55.0°F12.8°C 82% 5.6 mph N9.0 kmh N 10.1 mph16.3 kmh 30.14 in1020.7 mb 0.00 in0.0 mm 0.00 in0.0 mm 0.00 in0.0 mm
05:32 AM 60.8°F16.0°C 54.7°F12.6°C 80% 9.4 mph NW15.1 kmh NW 12.5 mph20.1 kmh 30.13 in1020.3 mb 0.00 in0.0 mm 0.00 in0.0 mm 0.00 in0.0 mm
05:47 AM 61.0°F16.1°C 54.7°F12.6°C 80% 7.8 mph NNW12.6 kmh NNW 12.5 mph20.1 kmh 30.13 in1020.3 mb 0.00 in0.0 mm 0.00 in0.0 mm 0.00 in0.0 mm
06:02 AM 61.2°F16.2°C 54.7°F12.6°C 79% 8.1 mph NNW13.0 kmh NNW 10.1 mph16.3 kmh 30.14 in1020.7 mb 0.00 in0.0 mm 0.00 in0.0 mm 0.00 in0.0 mm
06:17 AM 61.2°F16.2°C 54.9°F12.7°C 80% 7.6 mph NNW12.2 kmh NNW 12.5 mph20.1 kmh 30.14 in1020.7 mb 0.00 in0.0 mm 0.00 in0.0 mm 0.00 in0.0 mm
06:33 AM 61.3°F16.3°C 55.4°F13.0°C 81% 6.5 mph NNW10.5 kmh NNW 7.6 mph12.2 kmh 30.14 in1020.7 mb 0.00 in0.0 mm 0.00 in0.0 mm 0.00 in0.0 mm
06:48 AM 61.2°F16.2°C 55.6°F13.1°C 82% 4.0 mph NW6.4 kmh NW 7.6 mph12.2 kmh 30.14 in1020.7 mb 0.00 in0.0 mm 0.00 in0.0 mm 0.00 in0.0 mm
07:03 AM 61.3°F16.3°C 55.8°F13.2°C 82% 4.0 mph N6.4 kmh N 7.6 mph12.2 kmh 30.15 in1021.0 mb 0.00 in0.0 mm 0.00 in0.0 mm 0.00 in0.0 mm
07:18 AM 61.5°F16.4°C 56.3°F13.5°C 83% 5.4 mph N8.7 kmh N 7.6 mph12.2 kmh 30.15 in1021.0 mb 0.00 in0.0 mm 0.00 in0.0 mm 0.00 in0.0 mm
07:33 AM 61.5°F16.4°C 56.7°F13.7°C 84% 4.0 mph NNW6.4 kmh NNW 10.1 mph16.3 kmh 30.15 in1021.0 mb 0.00 in0.0 mm 0.00 in0.0 mm 0.00 in0.0 mm
07:49 AM 61.5°F16.4°C 56.3°F13.5°C 83% 4.7 mph N7.6 kmh N 7.6 mph12.2 kmh 30.16 in1021.3 mb 0.00 in0.0 mm 0.00 in0.0 mm 0.00 in0.0 mm
08:04 AM 61.9°F16.6°C 56.3°F13.5°C 82% 4.9 mph N7.9 kmh N 7.6 mph12.2 kmh 30.16 in1021.3 mb 0.00 in0.0 mm 0.00 in0.0 mm 0.00 in0.0 mm
08:19 AM 62.4°F16.9°C 56.5°F13.6°C 81% 2.5 mph NNW4.0 kmh NNW 7.6 mph12.2 kmh 30.16 in1021.3 mb 0.00 in0.0 mm 0.00 in0.0 mm 0.00 in0.0 mm
08:34 AM 63.7°F17.6°C 55.9°F13.3°C 76% 0.7 mph N1.1 kmh N 7.6 mph12.2 kmh 30.16 in1021.3 mb 0.00 in0.0 mm 0.00 in0.0 mm 0.00 in0.0 mm
08:49 AM 65.7°F18.7°C 56.3°F13.5°C 72% 0.9 mph SSE1.4 kmh SSE 4.9 mph7.9 kmh 30.17 in1021.7 mb 0.00 in0.0 mm 0.00 in0.0 mm 0.00 in0.0 mm
09:05 AM 67.8°F19.9°C 56.5°F13.6°C 67% 4.5 mph SSW7.2 kmh SSW 10.1 mph16.3 kmh 30.17 in1021.7 mb 0.00 in0.0 mm 0.00 in0.0 mm 0.00 in0.0 mm
09:20 AM 69.4°F20.8°C 56.7°F13.7°C 64% 5.4 mph S8.7 kmh S 10.1 mph16.3 kmh 30.18 in1022.0 mb 0.00 in0.0 mm 0.00 in0.0 mm 0.00 in0.0 mm
09:35 AM 70.2°F21.2°C 58.6°F14.8°C 67% 3.1 mph SSE5.0 kmh SSE 10.1 mph16.3 kmh 30.18 in1022.0 mb 0.00 in0.0 mm 0.00 in0.0 mm 0.00 in0.0 mm
09:50 AM 70.9°F21.6°C 57.7°F14.3°C 63% 3.1 mph WSW5.0 kmh WSW 12.5 mph20.1 kmh 30.18 in1022.0 mb 0.00 in0.0 mm 0.00 in0.0 mm 0.00 in0.0 mm
10:05 AM 71.1°F21.7°C 58.3°F14.6°C 64% 1.8 mph SSW2.9 kmh SSW 10.1 mph16.3 kmh 30.19 in1022.4 mb 0.00 in0.0 mm 0.00 in0.0 mm 0.00 in0.0 mm
10:20 AM 70.2°F21.2°C 60.3°F15.7°C 71% 5.4 mph E8.7 kmh E 10.1 mph16.3 kmh 30.19 in1022.4 mb 0.00 in0.0 mm 0.00 in0.0 mm 0.00 in0.0 mm
10:35 AM 69.3°F20.7°C 59.5°F15.3°C 71% 4.9 mph SE7.9 kmh SE 7.6 mph12.2 kmh 30.19 in1022.4 mb 0.00 in0.0 mm 0.00 in0.0 mm 0.00 in0.0 mm
10:51 AM 68.4°F20.2°C 58.3°F14.6°C 70% 3.4 mph SSW5.5 kmh SSW 12.5 mph20.1 kmh 30.19 in1022.4 mb 0.00 in0.0 mm 0.00 in0.0 mm 0.00 in0.0 mm
11:06 AM 68.5°F20.3°C 58.8°F14.9°C 71% 1.8 mph S2.9 kmh S 7.6 mph12.2 kmh 30.18 in1022.0 mb 0.00 in0.0 mm 0.00 in0.0 mm 0.00 in0.0 mm
11:21 AM 68.5°F20.3°C 59.5°F15.3°C 73% 1.3 mph E2.1 kmh E 12.5 mph20.1 kmh 30.19 in1022.4 mb 0.00 in0.0 mm 0.00 in0.0 mm 0.00 in0.0 mm
11:36 AM 68.0°F20.0°C 58.6°F14.8°C 72% 4.5 mph SSE7.2 kmh SSE 10.1 mph16.3 kmh 30.17 in1021.7 mb 0.00 in0.0 mm 0.00 in0.0 mm 0.00 in0.0 mm
11:51 AM 68.4°F20.2°C 58.3°F14.6°C 70% 2.5 mph SE4.0 kmh SE 10.1 mph16.3 kmh 30.17 in1021.7 mb 0.00 in0.0 mm 0.00 in0.0 mm 0.00 in0.0 mm
12:07 PM 69.3°F20.7°C 57.9°F14.4°C 67% 6.3 mph SSW10.1 kmh SSW 12.5 mph20.1 kmh 30.17 in1021.7 mb 0.00 in0.0 mm 0.00 in0.0 mm 0.00 in0.0 mm
12:22 PM 70.9°F21.6°C 59.0°F15.0°C 66% 2.5 mph SE4.0 kmh SE 17.4 mph28.0 kmh 30.17 in1021.7 mb 0.00 in0.0 mm 0.00 in0.0 mm 0.00 in0.0 mm
12:37 PM 72.1°F22.3°C 58.8°F14.9°C 63% 3.8 mph SSE6.1 kmh SSE 12.5 mph20.1 kmh 30.16 in1021.3 mb 0.00 in0.0 mm 0.00 in0.0 mm 0.00 in0.0 mm
12:52 PM 72.7°F22.6°C 59.7°F15.4°C 64% Calm Calm 15.0 mph24.1 kmh 30.16 in1021.3 mb 0.00 in0.0 mm 0.00 in0.0 mm 0.00 in0.0 mm
01:07 PM 72.3°F22.4°C 59.9°F15.5°C 65% 6.9 mph ESE11.1 kmh ESE 17.4 mph28.0 kmh 30.16 in1021.3 mb 0.00 in0.0 mm 0.00 in0.0 mm 0.00 in0.0 mm
01:23 PM 71.8°F22.1°C 59.0°F15.0°C 64% 7.8 mph SE12.6 kmh SE 15.0 mph24.1 kmh 30.16 in1021.3 mb 0.00 in0.0 mm 0.00 in0.0 mm 0.00 in0.0 mm
01:38 PM 72.0°F22.2°C 58.3°F14.6°C 62% 6.9 mph S11.1 kmh S 15.0 mph24.1 kmh 30.16 in1021.3 mb 0.00 in0.0 mm 0.00 in0.0 mm 0.00 in0.0 mm
01:53 PM 72.7°F22.6°C 59.4°F15.2°C 63% 6.3 mph ESE10.1 kmh ESE 15.0 mph24.1 kmh 30.15 in1021.0 mb 0.00 in0.0 mm 0.00 in0.0 mm 0.00 in0.0 mm
02:08 PM 73.2°F22.9°C 59.0°F15.0°C 61% 1.8 mph SE2.9 kmh SE 17.4 mph28.0 kmh 30.14 in1020.7 mb 0.00 in0.0 mm 0.00 in0.0 mm 0.00 in0.0 mm
02:23 PM 73.6°F23.1°C 60.6°F15.9°C 64% 2.2 mph SW3.5 kmh SW 15.0 mph24.1 kmh 30.14 in1020.7 mb 0.00 in0.0 mm 0.00 in0.0 mm 0.00 in0.0 mm
02:39 PM 73.9°F23.3°C 58.6°F14.8°C 59% 12.8 mph SE20.6 kmh SE 17.4 mph28.0 kmh 30.14 in1020.7 mb 0.00 in0.0 mm 0.00 in0.0 mm 0.00 in0.0 mm
02:54 PM 74.3°F23.5°C 59.5°F15.3°C 60% 7.2 mph SW11.6 kmh SW 15.0 mph24.1 kmh 30.14 in1020.7 mb 0.00 in0.0 mm 0.00 in0.0 mm 0.00 in0.0 mm
03:09 PM 74.3°F23.5°C 59.5°F15.3°C 60% 8.1 mph ESE13.0 kmh ESE 17.4 mph28.0 kmh 30.14 in1020.7 mb 0.00 in0.0 mm 0.00 in0.0 mm 0.00 in0.0 mm
03:24 PM 73.9°F23.3°C 59.7°F15.4°C 61% 6.3 mph SE10.1 kmh SE 15.0 mph24.1 kmh 30.12 in1020.0 mb 0.00 in0.0 mm 0.00 in0.0 mm 0.00 in0.0 mm
03:39 PM 73.8°F23.2°C 59.9°F15.5°C 62% 3.4 mph SE5.5 kmh SE 12.5 mph20.1 kmh 30.12 in1020.0 mb 0.00 in0.0 mm 0.00 in0.0 mm 0.00 in0.0 mm
03:55 PM 73.8°F23.2°C 59.5°F15.3°C 61% 4.0 mph S6.4 kmh S 12.5 mph20.1 kmh 30.12 in1020.0 mb 0.00 in0.0 mm 0.00 in0.0 mm 0.00 in0.0 mm
04:10 PM 74.1°F23.4°C 58.8°F14.9°C 59% 4.9 mph SSE7.9 kmh SSE 12.5 mph20.1 kmh 30.12 in1020.0 mb 0.00 in0.0 mm 0.00 in0.0 mm 0.00 in0.0 mm
04:25 PM 73.8°F23.2°C 60.4°F15.8°C 63% 6.5 mph SSW10.5 kmh SSW 15.0 mph24.1 kmh 30.12 in1020.0 mb 0.00 in0.0 mm 0.00 in0.0 mm 0.00 in0.0 mm
04:40 PM 72.5°F22.5°C 60.1°F15.6°C 65% 5.6 mph SSE9.0 kmh SSE 10.1 mph16.3 kmh 30.12 in1020.0 mb 0.00 in0.0 mm 0.00 in0.0 mm 0.00 in0.0 mm
04:55 PM 71.4°F21.9°C 59.9°F15.5°C 67% 4.0 mph SE6.4 kmh SE 10.1 mph16.3 kmh 30.13 in1020.3 mb 0.00 in0.0 mm 0.00 in0.0 mm 0.00 in0.0 mm
05:11 PM 70.7°F21.5°C 59.5°F15.3°C 68% 2.5 mph SW4.0 kmh SW 10.1 mph16.3 kmh 30.13 in1020.3 mb 0.00 in0.0 mm 0.00 in0.0 mm 0.00 in0.0 mm
05:26 PM 70.2°F21.2°C 59.5°F15.3°C 69% 2.5 mph SW4.0 kmh SW 7.6 mph12.2 kmh 30.13 in1020.3 mb 0.00 in0.0 mm 0.00 in0.0 mm 0.00 in0.0 mm
05:41 PM 69.8°F21.0°C 59.5°F15.3°C 70% 7.6 mph S12.2 kmh S 15.0 mph24.1 kmh 30.12 in1020.0 mb 0.00 in0.0 mm 0.00 in0.0 mm 0.00 in0.0 mm
05:57 PM 69.6°F20.9°C 59.4°F15.2°C 70% 6.0 mph SSE9.7 kmh SSE 10.1 mph16.3 kmh 30.12 in1020.0 mb 0.00 in0.0 mm 0.00 in0.0 mm 0.00 in0.0 mm
06:12 PM 69.3°F20.7°C 59.9°F15.5°C 72% 1.3 mph S2.1 kmh S 10.1 mph16.3 kmh 30.13 in1020.3 mb 0.00 in0.0 mm 0.00 in0.0 mm 0.00 in0.0 mm
06:27 PM 68.5°F20.3°C 59.2°F15.1°C 72% 7.2 mph SSE11.6 kmh SSE 7.6 mph12.2 kmh 30.13 in1020.3 mb 0.00 in0.0 mm 0.00 in0.0 mm 0.00 in0.0 mm
06:42 PM 68.0°F20.0°C 59.0°F15.0°C 73% 1.6 mph SSE2.6 kmh SSE 7.6 mph12.2 kmh 30.13 in1020.3 mb 0.00 in0.0 mm 0.00 in0.0 mm 0.00 in0.0 mm
06:57 PM 67.5°F19.7°C 58.8°F14.9°C 74% 5.4 mph SW8.7 kmh SW 10.1 mph16.3 kmh 30.12 in1020.0 mb 0.00 in0.0 mm 0.00 in0.0 mm 0.00 in0.0 mm
07:13 PM 67.1°F19.5°C 58.5°F14.7°C 74% 6.5 mph S10.5 kmh S 12.5 mph20.1 kmh 30.12 in1020.0 mb 0.00 in0.0 mm 0.00 in0.0 mm 0.00 in0.0 mm
07:28 PM 66.6°F19.2°C 58.8°F14.9°C 76% 2.9 mph SSW4.7 kmh SSW 10.1 mph16.3 kmh 30.12 in1020.0 mb 0.00 in0.0 mm 0.00 in0.0 mm 0.00 in0.0 mm
07:43 PM 66.2°F19.0°C 58.8°F14.9°C 77% 4.0 mph S6.4 kmh S 7.6 mph12.2 kmh 30.13 in1020.3 mb 0.00 in0.0 mm 0.00 in0.0 mm 0.00 in0.0 mm
07:58 PM 66.0°F18.9°C 58.6°F14.8°C 77% 2.2 mph SSW3.5 kmh SSW 4.9 mph7.9 kmh 30.13 in1020.3 mb 0.00 in0.0 mm 0.00 in0.0 mm 0.00 in0.0 mm
08:13 PM 65.8°F18.8°C 58.5°F14.7°C 77% Calm Calm 4.9 mph7.9 kmh 30.13 in1020.3 mb 0.00 in0.0 mm 0.00 in0.0 mm 0.00 in0.0 mm
08:28 PM 65.8°F18.8°C 58.5°F14.7°C 77% Calm Calm 2.5 mph4.0 kmh 30.13 in1020.3 mb 0.00 in0.0 mm 0.00 in0.0 mm 0.00 in0.0 mm
08:43 PM 65.8°F18.8°C 58.5°F14.7°C 77% Calm Calm 2.5 mph4.0 kmh 30.14 in1020.7 mb 0.00 in0.0 mm 0.00 in0.0 mm 0.00 in0.0 mm
08:59 PM 65.5°F18.6°C 58.5°F14.7°C 78% Calm Calm 4.9 mph7.9 kmh 30.14 in1020.7 mb 0.00 in0.0 mm 0.00 in0.0 mm 0.00 in0.0 mm
09:14 PM 64.9°F18.3°C 58.3°F14.6°C 79% 2.2 mph NNW3.5 kmh NNW 7.6 mph12.2 kmh 30.15 in1021.0 mb 0.00 in0.0 mm 0.00 in0.0 mm 0.00 in0.0 mm
09:29 PM 64.2°F17.9°C 57.2°F14.0°C 78% 5.4 mph NNW8.7 kmh NNW 7.6 mph12.2 kmh 30.15 in1021.0 mb 0.00 in0.0 mm 0.00 in0.0 mm 0.00 in0.0 mm
09:44 PM 63.5°F17.5°C 55.8°F13.2°C 76% 5.6 mph NNW9.0 kmh NNW 7.6 mph12.2 kmh 30.15 in1021.0 mb 0.00 in0.0 mm 0.00 in0.0 mm 0.00 in0.0 mm
09:59 PM 63.1°F17.3°C 55.8°F13.2°C 77% 4.0 mph NNW6.4 kmh NNW 10.1 mph16.3 kmh 30.14 in1020.7 mb 0.00 in0.0 mm 0.00 in0.0 mm 0.00 in0.0 mm
10:14 PM 63.0°F17.2°C 56.3°F13.5°C 79% 6.3 mph NNW10.1 kmh NNW 10.1 mph16.3 kmh 30.14 in1020.7 mb 0.00 in0.0 mm 0.00 in0.0 mm 0.00 in0.0 mm
10:30 PM 62.6°F17.0°C 55.9°F13.3°C 79% 5.6 mph N9.0 kmh N 10.1 mph16.3 kmh 30.15 in1021.0 mb 0.00 in0.0 mm 0.00 in0.0 mm 0.00 in0.0 mm
10:45 PM 62.4°F16.9°C 55.8°F13.2°C 79% 8.5 mph NNW13.7 kmh NNW 10.1 mph16.3 kmh 30.14 in1020.7 mb 0.00 in0.0 mm 0.00 in0.0 mm 0.00 in0.0 mm
11:01 PM 62.2°F16.8°C 55.2°F12.9°C 78% 7.2 mph NNW11.6 kmh NNW 10.1 mph16.3 kmh 30.14 in1020.7 mb 0.00 in0.0 mm 0.00 in0.0 mm 0.00 in0.0 mm
11:16 PM 62.2°F16.8°C 54.5°F12.5°C 76% 6.9 mph NNW11.1 kmh NNW 10.1 mph16.3 kmh 30.14 in1020.7 mb 0.00 in0.0 mm 0.00 in0.0 mm 0.00 in0.0 mm
11:31 PM 62.2°F16.8°C 54.1°F12.3°C 75% 6.9 mph N11.1 kmh N 10.1 mph16.3 kmh 30.14 in1020.7 mb 0.00 in0.0 mm 0.00 in0.0 mm 0.00 in0.0 mm
11:47 PM 61.9°F16.6°C 54.3°F12.4°C 76% 6.9 mph N11.1 kmh N 10.1 mph16.3 kmh 30.13 in1020.3 mb 0.00 in0.0 mm 0.00 in0.0 mm 0.00 in0.0 mm